Time;durP1;ratioP1;P1;durP2;ratioP2;P2;SDS_P1;SDS_P2;PMS_P1;PMS_P2;Temp;Humidity;BMP_temperature;BMP_pressure;BME280_temperature;BME280_humidity;BME280_pressure;Samples;Min_cycle;Max_cycle;Signal;HPM_P1;HPM_P2
2022/02/21 00:00:52;;;;;;;1.60;0.10;;;;;;;;;;4971177;28;20099;-79
2022/02/21 00:03:20;;;;;;;1.70;0.30;;;;;;;;;;4967406;28;20034;-80
2022/02/21 00:05:47;;;;;;;1.90;0.20;;;;;;;;;;4971497;28;20042;-80
2022/02/21 00:08:13;;;;;;;0.63;0.10;;;;;;;;;;4980406;28;20046;-80
2022/02/21 00:10:39;;;;;;;1.00;0.20;;;;;;;;;;4970216;28;20059;-81
2022/02/21 00:13:05;;;;;;;0.10;0.00;;;;;;;;;;4967931;28;20039;-80
2022/02/21 00:15:31;;;;;;;3.40;0.50;;;;;;;;;;4970577;28;20083;-80
2022/02/21 00:17:57;;;;;;;1.25;0.30;;;;;;;;;;4970249;28;20035;-80
2022/02/21 00:20:24;;;;;;;0.10;0.10;;;;;;;;;;4966106;28;20023;-80
2022/02/21 00:22:50;;;;;;;1.70;0.40;;;;;;;;;;4970308;28;20114;-80
2022/02/21 00:25:17;;;;;;;0.10;0.00;;;;;;;;;;4968302;28;20031;-81
2022/02/21 00:27:43;;;;;;;3.35;0.28;;;;;;;;;;4969512;28;20439;-80
2022/02/21 00:30:09;;;;;;;3.97;0.67;;;;;;;;;;4978474;28;20027;-80
2022/02/21 00:32:36;;;;;;;1.50;0.17;;;;;;;;;;4965714;28;20054;-80
2022/02/21 00:35:02;;;;;;;3.10;0.30;;;;;;;;;;4971516;28;20031;-78
2022/02/21 00:37:28;;;;;;;1.63;0.20;;;;;;;;;;4971416;28;20031;-80
2022/02/21 00:39:54;;;;;;;1.90;0.10;;;;;;;;;;4994923;23;20122;-81
2022/02/21 00:42:22;;;;;;;1.90;0.43;;;;;;;;;;5002227;28;20102;-80
2022/02/21 00:44:48;;;;;;;0.30;0.07;;;;;;;;;;4983800;28;20018;-81
2022/02/21 00:47:17;;;;;;;0.30;0.20;;;;;;;;;;5000523;28;20034;-81
2022/02/21 00:49:46;;;;;;;1.90;0.20;;;;;;;;;;4996390;28;20051;-83
2022/02/21 00:52:15;;;;;;;2.33;0.60;;;;;;;;;;4980797;28;20541;-82
2022/02/21 00:54:41;;;;;;;0.20;0.10;;;;;;;;;;4975581;28;20031;-81
2022/02/21 00:57:07;;;;;;;1.00;0.20;;;;;;;;;;4992318;28;20058;-81
2022/02/21 00:59:33;;;;;;;0.77;0.13;;;;;;;;;;4999201;28;20110;-80
2022/02/21 01:01:59;;;;;;;1.87;0.27;;;;;;;;;;5001446;28;20049;-80
2022/02/21 01:04:25;;;;;;;1.57;0.50;;;;;;;;;;5000007;28;20040;-80
2022/02/21 01:06:51;;;;;;;0.90;0.10;;;;;;;;;;4971368;28;20035;-80
2022/02/21 01:09:20;;;;;;;2.33;0.50;;;;;;;;;;4992402;28;20034;-81
2022/02/21 01:11:46;;;;;;;2.10;0.37;;;;;;;;;;4999319;28;20046;-80
2022/02/21 01:14:15;;;;;;;1.40;0.40;;;;;;;;;;4995695;28;20150;-80
2022/02/21 01:16:42;;;;;;;4.17;0.20;;;;;;;;;;4996960;28;20037;-80
2022/02/21 01:19:08;;;;;;;0.30;0.20;;;;;;;;;;5002089;28;20030;-80
2022/02/21 01:21:34;;;;;;;1.80;0.60;;;;;;;;;;5000161;28;20030;-80
2022/02/21 01:24:05;;;;;;;1.70;0.40;;;;;;;;;;4976654;28;20036;-83
2022/02/21 01:26:32;;;;;;;0.85;0.30;;;;;;;;;;4993971;28;20561;-84
2022/02/21 01:28:58;;;;;;;0.50;0.30;;;;;;;;;;4985849;28;20031;-84
2022/02/21 01:31:24;;;;;;;0.40;0.10;;;;;;;;;;4983749;28;20089;-84
2022/02/21 01:33:50;;;;;;;3.33;0.20;;;;;;;;;;4978788;28;20038;-82
2022/02/21 01:36:16;;;;;;;1.07;0.10;;;;;;;;;;4996456;28;20031;-82
2022/02/21 01:38:46;;;;;;;0.37;0.30;;;;;;;;;;4971867;28;20051;-81
2022/02/21 01:41:20;;;;;;;2.37;0.10;;;;;;;;;;4998765;28;20038;-84
2022/02/21 01:43:47;;;;;;;1.57;0.30;;;;;;;;;;4976845;28;20038;-82
2022/02/21 01:46:13;;;;;;;0.57;0.10;;;;;;;;;;4981690;28;20109;-81
2022/02/21 01:48:39;;;;;;;0.30;0.00;;;;;;;;;;4998841;28;20042;-81
2022/02/21 01:51:05;;;;;;;0.43;0.10;;;;;;;;;;4977110;28;20046;-81
2022/02/21 01:53:32;;;;;;;0.40;0.00;;;;;;;;;;4988740;28;20058;-81
2022/02/21 01:55:58;;;;;;;0.40;0.20;;;;;;;;;;4987830;28;20031;-81
2022/02/21 01:58:24;;;;;;;0.70;0.10;;;;;;;;;;4987959;28;20081;-81
2022/02/21 02:00:50;;;;;;;2.90;1.03;;;;;;;;;;4991313;28;20085;-81
2022/02/21 02:03:16;;;;;;;2.20;0.20;;;;;;;;;;4984821;28;20094;-81
2022/02/21 02:05:42;;;;;;;2.03;0.37;;;;;;;;;;5007097;28;20038;-81
2022/02/21 02:08:12;;;;;;;0.67;0.20;;;;;;;;;;4981670;28;20054;-83
2022/02/21 02:10:39;;;;;;;1.00;0.20;;;;;;;;;;4985219;28;20053;-84
2022/02/21 02:13:07;;;;;;;1.63;0.30;;;;;;;;;;4979045;28;20026;-82
2022/02/21 02:15:33;;;;;;;3.67;0.20;;;;;;;;;;4979189;28;20089;-81
2022/02/21 02:18:00;;;;;;;4.33;0.30;;;;;;;;;;4986481;28;20084;-83
2022/02/21 02:20:26;;;;;;;0.40;0.10;;;;;;;;;;4989653;28;20514;-81
2022/02/21 02:22:52;;;;;;;1.10;0.20;;;;;;;;;;4985884;28;20037;-85
2022/02/21 02:25:18;;;;;;;0.50;0.30;;;;;;;;;;4975268;28;20072;-84
2022/02/21 02:27:45;;;;;;;1.53;0.27;;;;;;;;;;4987940;28;21048;-81
2022/02/21 02:30:21;;;;;;;0.50;0.10;;;;;;;;;;4985926;28;20062;-82
2022/02/21 02:32:49;;;;;;;0.30;0.03;;;;;;;;;;4987219;28;20065;-83
2022/02/21 02:35:22;;;;;;;1.77;0.20;;;;;;;;;;4985493;28;20022;-83
2022/02/21 02:37:48;;;;;;;0.10;0.10;;;;;;;;;;4987480;28;20037;-82
2022/02/21 02:40:15;;;;;;;0.30;0.00;;;;;;;;;;5007421;28;20035;-83
2022/02/21 02:42:44;;;;;;;0.60;0.20;;;;;;;;;;5002378;28;20027;-83
2022/02/21 02:45:16;;;;;;;0.23;0.10;;;;;;;;;;4990942;28;20026;-83
2022/02/21 02:47:42;;;;;;;0.23;0.00;;;;;;;;;;5008184;28;20046;-83
2022/02/21 02:50:09;;;;;;;1.53;0.20;;;;;;;;;;4987520;28;20041;-82
2022/02/21 02:52:35;;;;;;;0.37;0.13;;;;;;;;;;4977897;28;20044;-83
2022/02/21 02:55:01;;;;;;;2.93;0.60;;;;;;;;;;4981628;28;20038;-83
2022/02/21 02:57:32;;;;;;;1.67;0.10;;;;;;;;;;4994104;28;20088;-83
2022/02/21 02:59:59;;;;;;;0.33;0.00;;;;;;;;;;4990907;28;20535;-82
2022/02/21 03:02:25;;;;;;;4.10;0.20;;;;;;;;;;5006282;28;20023;-83
2022/02/21 03:04:54;;;;;;;1.20;0.20;;;;;;;;;;4987935;28;20040;-83
2022/02/21 03:07:20;;;;;;;1.17;0.10;;;;;;;;;;5004929;28;20037;-83
2022/02/21 03:09:46;;;;;;;0.40;0.03;;;;;;;;;;4998592;28;20038;-82
2022/02/21 03:12:12;;;;;;;0.73;0.00;;;;;;;;;;5004253;28;20086;-83
2022/02/21 03:14:38;;;;;;;0.10;0.00;;;;;;;;;;4991142;28;20042;-82
2022/02/21 03:17:04;;;;;;;2.30;0.20;;;;;;;;;;4984801;28;20065;-83
2022/02/21 03:19:31;;;;;;;1.07;0.43;;;;;;;;;;4988773;28;20176;-83
2022/02/21 03:21:59;;;;;;;0.23;0.23;;;;;;;;;;4996047;28;20031;-83
2022/02/21 03:24:25;;;;;;;0.10;0.00;;;;;;;;;;4976566;28;20124;-83
2022/02/21 03:26:52;;;;;;;0.20;0.07;;;;;;;;;;4993793;28;20109;-83
2022/02/21 03:29:18;;;;;;;2.07;0.70;;;;;;;;;;4989333;28;20037;-83
2022/02/21 03:31:44;;;;;;;1.37;0.07;;;;;;;;;;4982984;28;20030;-82
2022/02/21 03:34:16;;;;;;;0.17;0.03;;;;;;;;;;4999742;28;20030;-83
2022/02/21 03:36:42;;;;;;;2.15;1.17;;;;;;;;;;4984791;28;20030;-82
2022/02/21 03:39:08;;;;;;;0.40;0.10;;;;;;;;;;5004264;28;20023;-82
2022/02/21 03:41:40;;;;;;;0.47;0.10;;;;;;;;;;4982375;28;20033;-83
2022/02/21 03:44:06;;;;;;;3.50;1.02;;;;;;;;;;4977516;28;20038;-83
2022/02/21 03:46:32;;;;;;;2.70;0.33;;;;;;;;;;4980674;28;20033;-83
2022/02/21 03:48:59;;;;;;;1.60;0.40;;;;;;;;;;4985052;28;20034;-82
2022/02/21 03:51:25;;;;;;;1.40;0.30;;;;;;;;;;4985494;28;20061;-82
2022/02/21 03:53:51;;;;;;;1.97;0.10;;;;;;;;;;4981336;28;20086;-81
2022/02/21 03:56:19;;;;;;;0.40;0.10;;;;;;;;;;4980236;28;20080;-82
2022/02/21 03:58:46;;;;;;;1.73;0.10;;;;;;;;;;4993936;28;20041;-81
2022/02/21 04:01:12;;;;;;;0.10;0.00;;;;;;;;;;4998737;28;20027;-81
2022/02/21 04:03:38;;;;;;;0.00;0.00;;;;;;;;;;4980753;28;20049;-81
2022/02/21 04:06:04;;;;;;;0.00;0.00;;;;;;;;;;4985418;28;20026;-81
2022/02/21 04:08:30;;;;;;;1.03;0.10;;;;;;;;;;4977307;28;20348;-81
2022/02/21 04:10:58;;;;;;;0.23;0.00;;;;;;;;;;4985092;28;20049;-81
2022/02/21 04:13:24;;;;;;;0.20;0.10;;;;;;;;;;4986077;28;20041;-81
2022/02/21 04:15:50;;;;;;;1.60;0.03;;;;;;;;;;4999542;28;20023;-81
2022/02/21 04:18:16;;;;;;;0.03;0.00;;;;;;;;;;4998488;28;20479;-81
2022/02/21 04:20:42;;;;;;;1.13;0.10;;;;;;;;;;4974931;28;20037;-81
2022/02/21 04:23:11;;;;;;;2.83;0.07;;;;;;;;;;4991937;28;20030;-81
2022/02/21 04:25:37;;;;;;;0.20;0.00;;;;;;;;;;4969318;28;20570;-81
2022/02/21 04:28:03;;;;;;;0.87;0.10;;;;;;;;;;4994380;28;20315;-81
2022/02/21 04:30:29;;;;;;;2.43;0.23;;;;;;;;;;4990176;28;20041;-81
2022/02/21 04:32:58;;;;;;;1.90;0.00;;;;;;;;;;4974599;28;20022;-81
2022/02/21 04:35:25;;;;;;;1.70;0.10;;;;;;;;;;4975973;28;20034;-82
2022/02/21 04:37:52;;;;;;;0.20;0.10;;;;;;;;;;4966815;28;20034;-80
2022/02/21 04:40:21;;;;;;;2.93;0.50;;;;;;;;;;4996050;28;20164;-81
2022/02/21 04:42:53;;;;;;;3.20;0.60;;;;;;;;;;4972479;28;20034;-81
2022/02/21 04:45:20;;;;;;;0.80;0.10;;;;;;;;;;4988014;28;20069;-81
2022/02/21 04:47:47;;;;;;;1.33;0.20;;;;;;;;;;4991670;28;20041;-81
2022/02/21 04:50:13;;;;;;;3.30;0.53;;;;;;;;;;4981817;28;20031;-81
2022/02/21 04:52:40;;;;;;;2.77;0.23;;;;;;;;;;4982230;28;20094;-81
2022/02/21 04:55:07;;;;;;;3.60;0.40;;;;;;;;;;4990467;28;20411;-81
2022/02/21 04:57:46;;;;;;;1.13;0.50;;;;;;;;;;4966811;28;20042;-81
2022/02/21 05:00:23;;;;;;;0.47;0.13;;;;;;;;;;4978446;28;20035;-82
2022/02/21 05:02:49;;;;;;;1.47;0.30;;;;;;;;;;4973646;28;20265;-82
2022/02/21 05:05:20;;;;;;;1.10;0.30;;;;;;;;;;4988501;28;20038;-81
2022/02/21 05:07:46;;;;;;;2.43;0.13;;;;;;;;;;4975422;28;20034;-82
2022/02/21 05:10:12;;;;;;;3.97;0.43;;;;;;;;;;4974742;28;20817;-82
2022/02/21 05:12:57;;;;;;;0.97;0.37;;;;;;;;;;4970441;28;20117;-82
2022/02/21 05:15:23;;;;;;;2.73;0.33;;;;;;;;;;4976189;28;20041;-83
2022/02/21 05:17:51;;;;;;;1.77;0.30;;;;;;;;;;4995170;28;20050;-83
2022/02/21 05:20:17;;;;;;;2.50;0.37;;;;;;;;;;4977143;28;20033;-83
2022/02/21 05:22:43;;;;;;;2.50;0.53;;;;;;;;;;4993838;28;20066;-83
2022/02/21 05:25:15;;;;;;;3.90;0.60;;;;;;;;;;5000421;28;20053;-83
2022/02/21 05:27:42;;;;;;;1.20;0.22;;;;;;;;;;4980742;28;20030;-83
2022/02/21 05:30:10;;;;;;;1.87;0.23;;;;;;;;;;4974020;28;20033;-83
2022/02/21 05:32:39;;;;;;;3.70;0.57;;;;;;;;;;4978658;28;20023;-83
2022/02/21 05:35:11;;;;;;;2.17;0.17;;;;;;;;;;4966980;28;20061;-83
2022/02/21 05:37:38;;;;;;;8.70;0.43;;;;;;;;;;4995953;28;20050;-83
2022/02/21 05:40:04;;;;;;;1.60;0.20;;;;;;;;;;4983321;28;20030;-83
2022/02/21 05:42:30;;;;;;;2.80;0.37;;;;;;;;;;5000293;28;20026;-83
2022/02/21 05:44:57;;;;;;;4.60;0.30;;;;;;;;;;4971428;28;20030;-82
2022/02/21 05:47:23;;;;;;;3.20;0.80;;;;;;;;;;4976009;28;20038;-82
2022/02/21 05:49:54;;;;;;;5.30;0.70;;;;;;;;;;4992888;28;20157;-82
2022/02/21 05:52:21;;;;;;;2.67;0.50;;;;;;;;;;4995764;28;20030;-82
2022/02/21 05:54:50;;;;;;;3.57;0.30;;;;;;;;;;4979049;28;20644;-82
2022/02/21 05:57:16;;;;;;;1.30;0.40;;;;;;;;;;4979524;28;20105;-82
2022/02/21 05:59:43;;;;;;;3.13;0.40;;;;;;;;;;4984963;28;20025;-82
2022/02/21 06:02:09;;;;;;;3.43;0.40;;;;;;;;;;4975520;28;20203;-82
2022/02/21 06:04:35;;;;;;;2.50;0.47;;;;;;;;;;4970861;28;20041;-82
2022/02/21 06:07:01;;;;;;;2.23;0.30;;;;;;;;;;4979435;28;20039;-82
2022/02/21 06:09:27;;;;;;;3.03;0.20;;;;;;;;;;4977047;28;20035;-82
2022/02/21 06:11:56;;;;;;;5.00;0.63;;;;;;;;;;4983891;28;20399;-83
2022/02/21 06:14:22;;;;;;;3.63;0.53;;;;;;;;;;4985152;28;20409;-82
2022/02/21 06:16:48;;;;;;;4.63;0.60;;;;;;;;;;4986290;28;20054;-82
2022/02/21 06:19:15;;;;;;;3.23;0.60;;;;;;;;;;4998200;28;20022;-82
2022/02/21 06:21:41;;;;;;;7.97;1.00;;;;;;;;;;4996992;28;20064;-82
2022/02/21 06:24:07;;;;;;;7.20;0.60;;;;;;;;;;4971688;28;20046;-82
2022/02/21 06:26:33;;;;;;;6.47;0.50;;;;;;;;;;4978080;28;20418;-82
2022/02/21 06:28:59;;;;;;;5.57;0.60;;;;;;;;;;4999525;28;20026;-82
2022/02/21 06:31:25;;;;;;;3.93;0.50;;;;;;;;;;5001067;28;20049;-82
2022/02/21 06:33:53;;;;;;;3.90;0.57;;;;;;;;;;4999107;28;20153;-83
2022/02/21 06:36:19;;;;;;;5.73;0.77;;;;;;;;;;4981913;28;20125;-82
2022/02/21 06:38:45;;;;;;;1.40;0.30;;;;;;;;;;4980542;28;20409;-82
2022/02/21 06:41:14;;;;;;;5.43;0.40;;;;;;;;;;4977653;23;20665;-84
2022/02/21 06:43:40;;;;;;;4.27;0.60;;;;;;;;;;4971874;28;20034;-83
2022/02/21 06:46:06;;;;;;;7.70;0.73;;;;;;;;;;4972485;28;20038;-84
2022/02/21 06:48:32;;;;;;;3.80;0.40;;;;;;;;;;4977010;28;20023;-84
2022/02/21 06:50:58;;;;;;;5.07;0.80;;;;;;;;;;4985578;28;20031;-83
2022/02/21 06:53:24;;;;;;;3.83;0.60;;;;;;;;;;4978474;28;20027;-84
2022/02/21 06:55:50;;;;;;;2.57;0.60;;;;;;;;;;4979251;28;20542;-84
2022/02/21 06:58:16;;;;;;;3.70;0.70;;;;;;;;;;4970987;28;20022;-84
2022/02/21 07:00:42;;;;;;;4.70;0.33;;;;;;;;;;4978659;28;20031;-84
2022/02/21 07:03:09;;;;;;;4.23;0.63;;;;;;;;;;4978065;28;20030;-84
2022/02/21 07:05:35;;;;;;;2.87;0.40;;;;;;;;;;4975580;28;20019;-84
2022/02/21 07:08:01;;;;;;;1.13;0.60;;;;;;;;;;4975374;28;20061;-84
2022/02/21 07:10:27;;;;;;;3.17;0.37;;;;;;;;;;4969804;28;20018;-84
2022/02/21 07:12:53;;;;;;;5.00;0.70;;;;;;;;;;4976348;28;20086;-84
2022/02/21 07:15:19;;;;;;;2.20;0.50;;;;;;;;;;4975108;28;20511;-83
2022/02/21 07:17:45;;;;;;;5.50;0.50;;;;;;;;;;4973889;28;20066;-84
2022/02/21 07:20:15;;;;;;;7.07;0.40;;;;;;;;;;4974956;28;20081;-83
2022/02/21 07:22:44;;;;;;;7.70;0.53;;;;;;;;;;4976653;28;20399;-84
2022/02/21 07:25:11;;;;;;;4.90;0.50;;;;;;;;;;4974701;28;20031;-83
2022/02/21 07:27:41;;;;;;;3.60;0.50;;;;;;;;;;4976181;28;20031;-84
2022/02/21 07:30:08;;;;;;;4.50;0.60;;;;;;;;;;4971500;28;20063;-83
2022/02/21 07:32:34;;;;;;;3.87;0.93;;;;;;;;;;4963133;28;20501;-84
2022/02/21 07:35:00;;;;;;;4.63;0.40;;;;;;;;;;4975837;28;20035;-84
2022/02/21 07:37:27;;;;;;;5.77;0.77;;;;;;;;;;4976110;28;20680;-84
2022/02/21 07:39:53;;;;;;;3.30;0.50;;;;;;;;;;4975131;28;20035;-85
2022/02/21 07:42:20;;;;;;;3.10;0.63;;;;;;;;;;4976327;28;20102;-84
2022/02/21 07:44:49;;;;;;;4.57;0.63;;;;;;;;;;4975535;28;20031;-84
2022/02/21 07:47:16;;;;;;;4.33;0.40;;;;;;;;;;4974576;28;20030;-84
2022/02/21 07:49:45;;;;;;;3.97;0.70;;;;;;;;;;4976576;28;20030;-84
2022/02/21 07:52:11;;;;;;;3.97;0.50;;;;;;;;;;4976196;28;20380;-83
2022/02/21 07:54:37;;;;;;;8.43;0.90;;;;;;;;;;4973954;28;20027;-82
2022/02/21 07:57:06;;;;;;;4.70;0.90;;;;;;;;;;4971211;28;20112;-83
2022/02/21 07:59:32;;;;;;;2.97;0.80;;;;;;;;;;4955904;29;20036;-83
2022/02/21 08:01:58;;;;;;;6.80;0.47;;;;;;;;;;4954591;28;20038;-83
2022/02/21 08:04:25;;;;;;;4.73;0.80;;;;;;;;;;4954227;29;20446;-83
2022/02/21 08:06:51;;;;;;;7.10;0.60;;;;;;;;;;4970753;28;20045;-83
2022/02/21 08:09:18;;;;;;;6.43;0.80;;;;;;;;;;4974609;28;20109;-82
2022/02/21 08:11:44;;;;;;;11.37;1.33;;;;;;;;;;4973076;28;20090;-82
2022/02/21 08:14:10;;;;;;;4.03;0.70;;;;;;;;;;4973460;28;20029;-83
2022/02/21 08:16:36;;;;;;;3.33;0.73;;;;;;;;;;4973880;28;20031;-82
2022/02/21 08:19:03;;;;;;;6.87;1.33;;;;;;;;;;4972953;28;20035;-83
2022/02/21 08:21:28;;;;;;;7.47;1.37;;;;;;;;;;4964999;28;20065;-83
2022/02/21 08:23:54;;;;;;;4.37;0.70;;;;;;;;;;4972336;28;20117;-84
2022/02/21 08:26:20;;;;;;;5.30;0.80;;;;;;;;;;4973379;28;20042;-84
2022/02/21 08:28:46;;;;;;;1.50;0.57;;;;;;;;;;4973860;28;20034;-84
2022/02/21 08:31:13;;;;;;;5.30;0.30;;;;;;;;;;4975149;28;20038;-83
2022/02/21 08:33:39;;;;;;;3.97;0.47;;;;;;;;;;4973434;28;20035;-83
2022/02/21 08:36:05;;;;;;;11.90;1.60;;;;;;;;;;4976703;28;20066;-84
2022/02/21 08:38:31;;;;;;;3.07;0.50;;;;;;;;;;4976954;28;20027;-84
2022/02/21 08:40:57;;;;;;;4.47;0.80;;;;;;;;;;4975640;28;20051;-83
2022/02/21 08:43:28;;;;;;;2.27;0.43;;;;;;;;;;4976674;28;20035;-83
2022/02/21 08:45:54;;;;;;;2.70;0.47;;;;;;;;;;4975476;28;20042;-83
2022/02/21 08:48:20;;;;;;;4.23;0.73;;;;;;;;;;4975626;28;20103;-83
2022/02/21 08:50:46;;;;;;;2.07;0.20;;;;;;;;;;4973463;28;20048;-83
2022/02/21 08:53:12;;;;;;;5.07;0.57;;;;;;;;;;4973432;28;20099;-83
2022/02/21 08:55:38;;;;;;;4.93;0.50;;;;;;;;;;4973601;28;20473;-84
2022/02/21 08:58:04;;;;;;;5.60;0.70;;;;;;;;;;4973661;28;20065;-83
2022/02/21 09:00:30;;;;;;;3.43;0.60;;;;;;;;;;4973397;28;20465;-82
2022/02/21 09:02:57;;;;;;;6.20;0.53;;;;;;;;;;4972582;28;20026;-84
2022/02/21 09:05:25;;;;;;;3.40;0.77;;;;;;;;;;4971295;28;20034;-88
2022/02/21 09:07:51;;;;;;;5.80;0.50;;;;;;;;;;4972526;28;20554;-88
2022/02/21 09:10:17;;;;;;;5.83;0.73;;;;;;;;;;4971793;28;20521;-89
2022/02/21 09:12:43;;;;;;;4.13;0.40;;;;;;;;;;4971863;28;20026;-88
2022/02/21 09:15:09;;;;;;;7.00;0.80;;;;;;;;;;4970790;28;20030;-88
2022/02/21 09:17:35;;;;;;;2.10;0.57;;;;;;;;;;4971553;28;20118;-88
2022/02/21 09:20:01;;;;;;;9.13;1.60;;;;;;;;;;4972897;28;20023;-87
2022/02/21 09:22:27;;;;;;;3.57;0.97;;;;;;;;;;4972884;28;20061;-88
2022/02/21 09:24:53;;;;;;;8.23;0.67;;;;;;;;;;4972065;28;20038;-88
2022/02/21 09:27:19;;;;;;;5.90;0.93;;;;;;;;;;4971654;28;20515;-89
2022/02/21 09:29:46;;;;;;;3.63;0.40;;;;;;;;;;4971397;28;20042;-89
2022/02/21 09:32:12;;;;;;;3.37;0.30;;;;;;;;;;4970782;28;20026;-88
2022/02/21 09:34:40;;;;;;;3.80;0.70;;;;;;;;;;4971238;28;20117;-88
2022/02/21 09:37:06;;;;;;;5.53;0.57;;;;;;;;;;4971750;28;20055;-88
2022/02/21 09:39:32;;;;;;;2.57;0.40;;;;;;;;;;4971487;28;20031;-88
2022/02/21 09:41:58;;;;;;;6.17;0.80;;;;;;;;;;4971460;28;20035;-86
2022/02/21 09:44:24;;;;;;;5.13;1.40;;;;;;;;;;4967660;28;20081;-86
2022/02/21 09:46:56;;;;;;;5.63;0.60;;;;;;;;;;4970504;28;20027;-86
2022/02/21 09:49:29;;;;;;;1.85;0.50;;;;;;;;;;4971754;28;20023;-87
2022/02/21 09:51:58;;;;;;;6.73;0.83;;;;;;;;;;4972768;28;20035;-87
2022/02/21 09:54:24;;;;;;;2.27;0.50;;;;;;;;;;4972339;28;20093;-87
2022/02/21 09:56:55;;;;;;;5.93;0.80;;;;;;;;;;4967955;28;20395;-88
2022/02/21 09:59:28;;;;;;;2.20;0.30;;;;;;;;;;4952133;29;20031;-88
2022/02/21 10:02:01;;;;;;;3.03;0.57;;;;;;;;;;4953560;28;20360;-87
2022/02/21 10:04:32;;;;;;;2.07;0.20;;;;;;;;;;4951839;29;20043;-87
2022/02/21 10:07:01;;;;;;;4.93;0.50;;;;;;;;;;4970791;28;20039;-88
2022/02/21 10:09:34;;;;;;;3.00;0.60;;;;;;;;;;4972100;28;20097;-88
2022/02/21 10:12:03;;;;;;;4.28;0.90;;;;;;;;;;4970440;28;20110;-88
2022/02/21 10:14:30;;;;;;;3.20;0.40;;;;;;;;;;4969779;28;20034;-88
2022/02/21 10:16:57;;;;;;;7.60;0.60;;;;;;;;;;4971589;28;20030;-88
2022/02/21 10:19:25;;;;;;;3.37;0.47;;;;;;;;;;4970697;28;20054;-88
2022/02/21 10:21:59;;;;;;;6.47;0.70;;;;;;;;;;4970608;28;20705;-88
2022/02/21 10:24:46;;;;;;;3.13;0.53;;;;;;;;;;4971615;28;20129;-87
2022/02/21 10:27:16;;;;;;;2.27;0.40;;;;;;;;;;4975162;28;20027;-88
2022/02/21 10:29:49;;;;;;;5.70;0.77;;;;;;;;;;4974141;28;20065;-88
2022/02/21 10:32:18;;;;;;;2.60;0.40;;;;;;;;;;4974725;28;20041;-87
2022/02/21 10:34:46;;;;;;;1.67;0.53;;;;;;;;;;4973796;28;20065;-87
2022/02/21 10:37:14;;;;;;;4.07;0.50;;;;;;;;;;4974946;28;20030;-88
2022/02/21 10:39:43;;;;;;;4.77;0.60;;;;;;;;;;4969483;28;20105;-88
2022/02/21 10:42:10;;;;;;;4.27;0.60;;;;;;;;;;4973889;28;20126;-88
2022/02/21 10:44:38;;;;;;;1.97;0.40;;;;;;;;;;4973063;28;20031;-87
2022/02/21 10:47:12;;;;;;;3.83;0.77;;;;;;;;;;4973494;28;20031;-88
2022/02/21 10:49:43;;;;;;;4.93;0.70;;;;;;;;;;4975224;28;20106;-87
2022/02/21 10:52:20;;;;;;;2.73;0.53;;;;;;;;;;4973876;28;20027;-88
2022/02/21 10:54:46;;;;;;;2.90;1.43;;;;;;;;;;4974746;28;20030;-88
2022/02/21 10:57:13;;;;;;;3.50;0.60;;;;;;;;;;4973944;28;20051;-88
2022/02/21 10:59:39;;;;;;;3.53;0.43;;;;;;;;;;4974227;28;20110;-89
2022/02/21 11:02:10;;;;;;;5.50;0.40;;;;;;;;;;4974002;28;20447;-89
2022/02/21 11:04:44;;;;;;;0.97;0.30;;;;;;;;;;4973436;28;20525;-90
2022/02/21 11:07:41;;;;;;;2.67;0.23;;;;;;;;;;4974278;28;20031;-89
2022/02/21 11:10:10;;;;;;;2.97;0.30;;;;;;;;;;4973812;28;20038;-88
2022/02/21 11:12:39;;;;;;;3.07;0.37;;;;;;;;;;4974998;28;20373;-90
2022/02/21 11:15:05;;;;;;;2.73;0.40;;;;;;;;;;4973995;28;20030;-89
2022/02/21 11:17:36;;;;;;;4.17;0.47;;;;;;;;;;4973381;28;20483;-89
2022/02/21 11:20:05;;;;;;;1.77;0.30;;;;;;;;;;4974243;28;20096;-89
2022/02/21 11:22:40;;;;;;;2.20;0.33;;;;;;;;;;4973988;28;20546;-89
2022/02/21 11:25:27;;;;;;;2.27;0.40;;;;;;;;;;4971892;28;20070;-89
2022/02/21 11:28:21;;;;;;;2.70;0.40;;;;;;;;;;4975345;28;20034;-88
2022/02/21 11:30:51;;;;;;;2.03;0.50;;;;;;;;;;4954844;28;20051;-89
2022/02/21 11:33:20;;;;;;;5.50;0.53;;;;;;;;;;4972822;28;20034;-89
2022/02/21 11:36:06;;;;;;;3.60;0.40;;;;;;;;;;4974341;28;20503;-90
2022/02/21 11:38:33;;;;;;;5.53;0.30;;;;;;;;;;4974133;28;20121;-88
2022/02/21 11:40:59;;;;;;;7.10;0.77;;;;;;;;;;4974857;28;20025;-88
2022/02/21 11:43:25;;;;;;;2.40;0.30;;;;;;;;;;4974640;28;20038;-89
2022/02/21 11:45:55;;;;;;;6.90;0.50;;;;;;;;;;4973942;28;20405;-89
2022/02/21 11:48:21;;;;;;;3.63;0.40;;;;;;;;;;4970927;28;20023;-89
2022/02/21 11:50:47;;;;;;;2.03;0.40;;;;;;;;;;4954852;28;20514;-89
2022/02/21 11:53:25;;;;;;;3.60;0.33;;;;;;;;;;4966106;28;20396;-89
2022/02/21 11:55:52;;;;;;;3.77;0.30;;;;;;;;;;4973490;28;20037;-88
2022/02/21 11:58:36;;;;;;;4.03;0.30;;;;;;;;;;4972436;28;20081;-89
2022/02/21 12:01:15;;;;;;;4.40;0.60;;;;;;;;;;4984401;28;20035;-89
2022/02/21 12:03:42;;;;;;;2.20;0.50;;;;;;;;;;4971517;28;20092;-89
2022/02/21 12:06:09;;;;;;;4.67;0.73;;;;;;;;;;4972535;28;20057;-89
2022/02/21 12:08:56;;;;;;;2.60;0.40;;;;;;;;;;4971896;28;20027;-88
2022/02/21 12:11:32;;;;;;;3.67;0.60;;;;;;;;;;4984927;28;20063;-88
2022/02/21 12:14:11;;;;;;;4.77;0.53;;;;;;;;;;4970233;28;20495;-89
2022/02/21 12:17:13;;;;;;;5.43;0.80;;;;;;;;;;4971894;28;20046;-89
2022/02/21 12:19:42;;;;;;;3.87;0.50;;;;;;;;;;4915460;29;20024;-90
2022/02/21 12:22:11;;;;;;;0.87;0.30;;;;;;;;;;4962422;28;20043;-89
2022/02/21 12:24:58;;;;;;;5.00;0.60;;;;;;;;;;4971946;28;20026;-89
2022/02/21 12:27:24;;;;;;;1.47;0.40;;;;;;;;;;4971558;28;20440;-88
2022/02/21 12:29:50;;;;;;;4.37;0.30;;;;;;;;;;4971728;28;20142;-88
2022/02/21 12:32:22;;;;;;;4.93;0.57;;;;;;;;;;4971663;28;20132;-88
2022/02/21 12:34:50;;;;;;;1.40;0.20;;;;;;;;;;4971520;28;20046;-88
2022/02/21 12:37:18;;;;;;;3.20;0.30;;;;;;;;;;4971463;28;20031;-89
2022/02/21 12:39:53;;;;;;;2.40;0.30;;;;;;;;;;4965888;28;20226;-88
2022/02/21 12:42:24;;;;;;;1.30;0.30;;;;;;;;;;4963983;28;20047;-86
2022/02/21 12:44:50;;;;;;;0.67;0.10;;;;;;;;;;4968769;28;20113;-87
2022/02/21 12:47:21;;;;;;;1.50;0.30;;;;;;;;;;4969893;28;20046;-87
2022/02/21 12:49:51;;;;;;;3.63;0.33;;;;;;;;;;4969606;28;20031;-87
2022/02/21 12:52:19;;;;;;;3.03;0.57;;;;;;;;;;4968032;28;20023;-87
2022/02/21 12:54:51;;;;;;;3.30;0.40;;;;;;;;;;4969981;28;20101;-87
2022/02/21 12:57:19;;;;;;;4.28;0.65;;;;;;;;;;4962297;28;20050;-87
2022/02/21 12:59:49;;;;;;;5.63;0.63;;;;;;;;;;4968987;28;20825;-87
2022/02/21 13:02:16;;;;;;;3.77;0.40;;;;;;;;;;4967589;28;20542;-87
2022/02/21 13:04:42;;;;;;;3.10;0.40;;;;;;;;;;4968188;28;20054;-87
2022/02/21 13:07:10;;;;;;;2.17;0.40;;;;;;;;;;4972860;28;20038;-87
2022/02/21 13:09:39;;;;;;;1.37;0.50;;;;;;;;;;4968481;28;20031;-86
2022/02/21 13:12:07;;;;;;;4.50;0.83;;;;;;;;;;4967501;28;20034;-86
2022/02/21 13:14:42;;;;;;;2.63;0.40;;;;;;;;;;4971163;28;20494;-86
2022/02/21 13:17:10;;;;;;;0.90;0.20;;;;;;;;;;4970586;28;20038;-86
2022/02/21 13:19:37;;;;;;;2.30;0.27;;;;;;;;;;4970245;28;20083;-86
2022/02/21 13:22:14;;;;;;;1.60;0.63;;;;;;;;;;4971260;28;20034;-87
2022/02/21 13:24:53;;;;;;;0.57;0.20;;;;;;;;;;4967901;28;20042;-87
2022/02/21 13:27:26;;;;;;;1.10;0.27;;;;;;;;;;4969242;28;20049;-87
2022/02/21 13:30:19;;;;;;;3.63;0.37;;;;;;;;;;4967832;28;20033;-88
2022/02/21 13:33:05;;;;;;;1.58;0.17;;;;;;;;;;4946381;28;20491;-89
2022/02/21 13:35:45;;;;;;;1.60;0.10;;;;;;;;;;4968503;28;20491;-86
2022/02/21 13:41:47;;;;;;;0.13;0.00;;;;;;;;;;4974908;23;20055;-86
2022/02/21 13:44:51;;;;;;;3.10;0.57;;;;;;;;;;4960924;28;20065;-87
2022/02/21 13:47:49;;;;;;;1.77;0.23;;;;;;;;;;4908097;23;20114;-84
2022/02/21 13:50:38;;;;;;;2.90;0.37;;;;;;;;;;4892069;29;20052;-84
2022/02/21 13:53:25;;;;;;;1.80;0.20;;;;;;;;;;4897747;29;20040;-84
2022/02/21 13:56:13;;;;;;;2.03;0.20;;;;;;;;;;4906586;29;20106;-84
2022/02/21 13:59:08;;;;;;;2.53;0.30;;;;;;;;;;4899439;29;20037;-84
2022/02/21 14:01:49;;;;;;;2.13;0.30;;;;;;;;;;4932509;28;20045;-84
2022/02/21 14:04:25;;;;;;;0.40;0.10;;;;;;;;;;4960623;28;20058;-84
2022/02/21 14:06:56;;;;;;;2.47;0.20;;;;;;;;;;4971247;28;20483;-85
2022/02/21 14:09:48;;;;;;;1.67;0.20;;;;;;;;;;4969602;28;20039;-85
2022/02/21 14:12:23;;;;;;;0.60;0.10;;;;;;;;;;4969720;28;20026;-84
2022/02/21 14:14:55;;;;;;;0.63;0.30;;;;;;;;;;4945434;28;20037;-84
2022/02/21 14:17:26;;;;;;;0.57;0.10;;;;;;;;;;4973688;28;20038;-84
2022/02/21 14:20:02;;;;;;;3.73;0.50;;;;;;;;;;4956350;28;20031;-84
2022/02/21 14:22:33;;;;;;;0.10;0.10;;;;;;;;;;4956148;28;20061;-84
2022/02/21 14:25:00;;;;;;;2.63;0.70;;;;;;;;;;4956940;28;20042;-85
2022/02/21 14:27:38;;;;;;;0.77;0.10;;;;;;;;;;4971581;28;20030;-84
2022/02/21 14:33:22;;;;;;;2.83;0.20;;;;;;;;;;4926834;29;20039;-84
2022/02/21 14:36:07;;;;;;;0.53;0.10;;;;;;;;;;4949002;28;20039;-84
2022/02/21 14:38:39;;;;;;;2.53;0.23;;;;;;;;;;4954235;28;20036;-84
2022/02/21 14:44:02;;;;;;;2.73;0.20;;;;;;;;;;4960693;28;20149;-84
2022/02/21 14:46:44;;;;;;;1.73;0.27;;;;;;;;;;4971981;28;20123;-83
2022/02/21 14:52:32;;;;;;;1.27;0.23;;;;;;;;;;4950797;28;20066;-84
2022/02/21 14:55:10;;;;;;;;;;;;;;;;;;;;;
2022/02/21 14:57:46;;;;;;;1.10;0.50;;;;;;;;;;4969341;28;20518;-84
2022/02/21 15:00:51;;;;;;;;;;;;;;;;;;;;;
2022/02/21 15:03:50;;;;;;;;;;;;;;;;;;;;;
2022/02/21 15:09:12;;;;;;;1.13;0.20;;;;;;;;;;4968643;28;20042;-84
2022/02/21 15:11:49;;;;;;;4.37;0.60;;;;;;;;;;4950135;28;20086;-84
2022/02/21 15:14:35;;;;;;;4.17;0.60;;;;;;;;;;4953481;28;20038;-84